sensor_id;sensor_type;location;lat;lon;timestamp;temperature;humidity
7606;DHT22;3844;53.360;9.738;2023-03-30T00:00:35;8.90;95.70
7606;DHT22;3844;53.360;9.738;2023-03-30T00:02:36;9.00;95.70
7606;DHT22;3844;53.360;9.738;2023-03-30T00:04:38;9.00;95.70
7606;DHT22;3844;53.360;9.738;2023-03-30T00:06:42;9.00;95.70
7606;DHT22;3844;53.360;9.738;2023-03-30T00:08:42;9.00;95.70
7606;DHT22;3844;53.360;9.738;2023-03-30T00:10:44;9.00;95.70
7606;DHT22;3844;53.360;9.738;2023-03-30T00:12:47;9.00;95.70
7606;DHT22;3844;53.360;9.738;2023-03-30T00:14:49;9.00;95.70
7606;DHT22;3844;53.360;9.738;2023-03-30T00:16:50;9.00;95.70
7606;DHT22;3844;53.360;9.738;2023-03-30T00:18:52;9.00;95.70
7606;DHT22;3844;53.360;9.738;2023-03-30T00:20:53;9.00;95.70
7606;DHT22;3844;53.360;9.738;2023-03-30T00:22:54;9.00;95.70
7606;DHT22;3844;53.360;9.738;2023-03-30T00:26:56;9.00;95.70
7606;DHT22;3844;53.360;9.738;2023-03-30T00:28:56;9.10;95.70
7606;DHT22;3844;53.360;9.738;2023-03-30T00:30:57;9.10;95.70
7606;DHT22;3844;53.360;9.738;2023-03-30T00:32:58;9.10;95.70
7606;DHT22;3844;53.360;9.738;2023-03-30T00:34:59;9.10;95.70
7606;DHT22;3844;53.360;9.738;2023-03-30T00:37:00;9.10;95.70
7606;DHT22;3844;53.360;9.738;2023-03-30T00:39:04;9.10;95.70
7606;DHT22;3844;53.360;9.738;2023-03-30T00:41:06;9.10;95.70
7606;DHT22;3844;53.360;9.738;2023-03-30T00:43:10;9.10;95.70
7606;DHT22;3844;53.360;9.738;2023-03-30T00:45:21;9.00;95.70
7606;DHT22;3844;53.360;9.738;2023-03-30T00:47:23;9.00;95.70
7606;DHT22;3844;53.360;9.738;2023-03-30T00:49:25;9.00;95.70
7606;DHT22;3844;53.360;9.738;2023-03-30T00:51:26;9.00;95.70
7606;DHT22;3844;53.360;9.738;2023-03-30T00:53:33;9.00;95.70
7606;DHT22;3844;53.360;9.738;2023-03-30T00:55:36;9.00;95.70
7606;DHT22;3844;53.360;9.738;2023-03-30T00:57:39;9.00;95.70
7606;DHT22;3844;53.360;9.738;2023-03-30T00:59:42;9.00;95.70
7606;DHT22;3844;53.360;9.738;2023-03-30T01:01:43;9.00;95.70
7606;DHT22;3844;53.360;9.738;2023-03-30T01:03:50;9.10;95.70
7606;DHT22;3844;53.360;9.738;2023-03-30T01:09:10;9.10;95.70
7606;DHT22;3844;53.360;9.738;2023-03-30T01:11:11;9.10;95.70
7606;DHT22;3844;53.360;9.738;2023-03-30T01:13:13;9.10;95.70
7606;DHT22;3844;53.360;9.738;2023-03-30T01:15:14;9.10;95.70
7606;DHT22;3844;53.360;9.738;2023-03-30T01:17:27;9.10;95.70
7606;DHT22;3844;53.360;9.738;2023-03-30T01:21:47;9.00;95.70
7606;DHT22;3844;53.360;9.738;2023-03-30T01:24:17;9.00;95.70
7606;DHT22;3844;53.360;9.738;2023-03-30T01:39:20;9.10;95.70
7606;DHT22;3844;53.360;9.738;2023-03-30T01:41:18;9.10;95.70
7606;DHT22;3844;53.360;9.738;2023-03-30T01:43:33;9.20;95.70
7606;DHT22;3844;53.360;9.738;2023-03-30T01:50:41;9.20;95.70
7606;DHT22;3844;53.360;9.738;2023-03-30T01:52:49;9.20;95.70
7606;DHT22;3844;53.360;9.738;2023-03-30T01:55:15;9.10;95.70
7606;DHT22;3844;53.360;9.738;2023-03-30T01:57:41;9.10;95.70
7606;DHT22;3844;53.360;9.738;2023-03-30T02:00:04;9.00;95.70
7606;DHT22;3844;53.360;9.738;2023-03-30T02:02:14;9.00;95.70
7606;DHT22;3844;53.360;9.738;2023-03-30T02:04:19;9.10;95.70
7606;DHT22;3844;53.360;9.738;2023-03-30T02:06:29;9.00;95.70
7606;DHT22;3844;53.360;9.738;2023-03-30T02:08:38;9.00;95.70
7606;DHT22;3844;53.360;9.738;2023-03-30T02:10:42;9.00;95.70
7606;DHT22;3844;53.360;9.738;2023-03-30T02:12:44;9.00;95.70
7606;DHT22;3844;53.360;9.738;2023-03-30T02:14:46;9.00;95.70
7606;DHT22;3844;53.360;9.738;2023-03-30T02:16:53;9.00;95.70
7606;DHT22;3844;53.360;9.738;2023-03-30T02:18:55;9.00;95.70
7606;DHT22;3844;53.360;9.738;2023-03-30T02:20:57;9.00;95.70
7606;DHT22;3844;53.360;9.738;2023-03-30T02:22:59;8.90;95.70
7606;DHT22;3844;53.360;9.738;2023-03-30T02:25:00;8.90;95.70
7606;DHT22;3844;53.360;9.738;2023-03-30T02:27:03;8.90;95.70
7606;DHT22;3844;53.360;9.738;2023-03-30T02:29:03;9.00;95.70
7606;DHT22;3844;53.360;9.738;2023-03-30T02:31:12;9.00;95.70
7606;DHT22;3844;53.360;9.738;2023-03-30T02:33:35;9.00;95.70
7606;DHT22;3844;53.360;9.738;2023-03-30T02:40:03;9.00;95.70
7606;DHT22;3844;53.360;9.738;2023-03-30T02:47:00;9.00;95.70
7606;DHT22;3844;53.360;9.738;2023-03-30T02:49:24;8.90;95.70
7606;DHT22;3844;53.360;9.738;2023-03-30T02:51:49;8.90;95.70
7606;DHT22;3844;53.360;9.738;2023-03-30T02:56:12;8.80;95.70
7606;DHT22;3844;53.360;9.738;2023-03-30T02:58:33;8.70;95.70
7606;DHT22;3844;53.360;9.738;2023-03-30T03:02:41;8.70;95.70
7606;DHT22;3844;53.360;9.738;2023-03-30T03:04:43;8.70;95.70
7606;DHT22;3844;53.360;9.738;2023-03-30T03:06:45;8.60;95.70
7606;DHT22;3844;53.360;9.738;2023-03-30T03:08:46;8.60;95.70
7606;DHT22;3844;53.360;9.738;2023-03-30T03:10:47;8.60;95.70
7606;DHT22;3844;53.360;9.738;2023-03-30T03:12:48;8.50;95.70
7606;DHT22;3844;53.360;9.738;2023-03-30T03:14:49;8.50;95.70
7606;DHT22;3844;53.360;9.738;2023-03-30T03:16:50;8.50;95.70
7606;DHT22;3844;53.360;9.738;2023-03-30T03:18:50;8.50;95.70
7606;DHT22;3844;53.360;9.738;2023-03-30T03:20:51;8.50;95.70
7606;DHT22;3844;53.360;9.738;2023-03-30T03:24:53;8.50;95.70
7606;DHT22;3844;53.360;9.738;2023-03-30T03:28:55;8.50;95.70
7606;DHT22;3844;53.360;9.738;2023-03-30T03:30:56;8.50;95.70
7606;DHT22;3844;53.360;9.738;2023-03-30T03:32:57;8.50;95.70
7606;DHT22;3844;53.360;9.738;2023-03-30T03:34:58;8.60;95.70
7606;DHT22;3844;53.360;9.738;2023-03-30T03:36:59;8.60;95.70
7606;DHT22;3844;53.360;9.738;2023-03-30T03:39:00;8.70;95.70
7606;DHT22;3844;53.360;9.738;2023-03-30T03:41:01;8.70;95.70
7606;DHT22;3844;53.360;9.738;2023-03-30T03:43:01;8.70;95.70
7606;DHT22;3844;53.360;9.738;2023-03-30T03:45:02;8.70;95.70
7606;DHT22;3844;53.360;9.738;2023-03-30T03:47:03;8.70;95.70
7606;DHT22;3844;53.360;9.738;2023-03-30T03:49:04;8.70;95.70
7606;DHT22;3844;53.360;9.738;2023-03-30T03:51:05;8.70;95.70
7606;DHT22;3844;53.360;9.738;2023-03-30T03:53:05;8.70;95.70
7606;DHT22;3844;53.360;9.738;2023-03-30T03:55:07;8.60;95.70
7606;DHT22;3844;53.360;9.738;2023-03-30T03:57:08;8.60;95.70
7606;DHT22;3844;53.360;9.738;2023-03-30T04:01:10;8.50;95.70
7606;DHT22;3844;53.360;9.738;2023-03-30T04:03:13;8.50;95.70
7606;DHT22;3844;53.360;9.738;2023-03-30T04:05:14;8.50;95.70
7606;DHT22;3844;53.360;9.738;2023-03-30T04:07:14;8.50;95.70
7606;DHT22;3844;53.360;9.738;2023-03-30T04:09:15;8.50;95.70
7606;DHT22;3844;53.360;9.738;2023-03-30T04:11:17;8.50;95.70
7606;DHT22;3844;53.360;9.738;2023-03-30T04:13:17;8.50;95.70
7606;DHT22;3844;53.360;9.738;2023-03-30T04:17:19;8.50;95.70
7606;DHT22;3844;53.360;9.738;2023-03-30T04:19:23;8.50;95.70
7606;DHT22;3844;53.360;9.738;2023-03-30T04:21:25;8.50;95.70
7606;DHT22;3844;53.360;9.738;2023-03-30T04:23:29;8.50;95.70
7606;DHT22;3844;53.360;9.738;2023-03-30T04:25:30;8.50;95.70
7606;DHT22;3844;53.360;9.738;2023-03-30T04:27:31;8.50;95.70
7606;DHT22;3844;53.360;9.738;2023-03-30T04:29:32;8.50;95.70
7606;DHT22;3844;53.360;9.738;2023-03-30T04:31:33;8.50;95.70
7606;DHT22;3844;53.360;9.738;2023-03-30T04:33:36;8.50;95.70
7606;DHT22;3844;53.360;9.738;2023-03-30T04:35:38;8.60;95.70
7606;DHT22;3844;53.360;9.738;2023-03-30T04:37:39;8.60;95.70
7606;DHT22;3844;53.360;9.738;2023-03-30T04:39:41;8.60;95.70
7606;DHT22;3844;53.360;9.738;2023-03-30T04:41:43;8.60;95.70
7606;DHT22;3844;53.360;9.738;2023-03-30T04:43:45;8.60;95.70
7606;DHT22;3844;53.360;9.738;2023-03-30T04:45:53;8.60;95.70
7606;DHT22;3844;53.360;9.738;2023-03-30T04:47:54;8.70;95.70
7606;DHT22;3844;53.360;9.738;2023-03-30T04:49:55;8.70;95.70
7606;DHT22;3844;53.360;9.738;2023-03-30T04:51:55;8.70;95.70
7606;DHT22;3844;53.360;9.738;2023-03-30T04:53:56;8.70;95.70
7606;DHT22;3844;53.360;9.738;2023-03-30T04:55:57;8.70;95.70
7606;DHT22;3844;53.360;9.738;2023-03-30T04:59:58;8.80;95.70
7606;DHT22;3844;53.360;9.738;2023-03-30T05:01:59;8.80;95.70
7606;DHT22;3844;53.360;9.738;2023-03-30T05:04:00;8.80;95.70
7606;DHT22;3844;53.360;9.738;2023-03-30T05:06:01;8.90;95.70
7606;DHT22;3844;53.360;9.738;2023-03-30T05:08:02;8.90;95.70
7606;DHT22;3844;53.360;9.738;2023-03-30T05:10:03;8.90;95.70
7606;DHT22;3844;53.360;9.738;2023-03-30T05:12:04;9.00;95.70
7606;DHT22;3844;53.360;9.738;2023-03-30T05:14:04;9.00;95.70
7606;DHT22;3844;53.360;9.738;2023-03-30T05:16:06;9.00;95.70
7606;DHT22;3844;53.360;9.738;2023-03-30T05:18:07;9.00;95.70
7606;DHT22;3844;53.360;9.738;2023-03-30T05:20:08;9.00;95.70
7606;DHT22;3844;53.360;9.738;2023-03-30T05:22:09;9.10;95.70
7606;DHT22;3844;53.360;9.738;2023-03-30T05:24:12;9.10;95.70
7606;DHT22;3844;53.360;9.738;2023-03-30T05:26:12;9.10;95.70
7606;DHT22;3844;53.360;9.738;2023-03-30T05:28:13;9.20;95.70
7606;DHT22;3844;53.360;9.738;2023-03-30T05:30:17;9.20;95.70
7606;DHT22;3844;53.360;9.738;2023-03-30T05:32:21;9.20;95.70
7606;DHT22;3844;53.360;9.738;2023-03-30T05:34:21;9.20;95.70
7606;DHT22;3844;53.360;9.738;2023-03-30T05:36:22;9.20;95.70
7606;DHT22;3844;53.360;9.738;2023-03-30T05:38:23;9.20;95.70
7606;DHT22;3844;53.360;9.738;2023-03-30T05:40:23;9.30;95.70
7606;DHT22;3844;53.360;9.738;2023-03-30T05:42:24;9.30;95.70
7606;DHT22;3844;53.360;9.738;2023-03-30T05:44:25;9.30;95.70
7606;DHT22;3844;53.360;9.738;2023-03-30T05:46:26;9.40;95.70
7606;DHT22;3844;53.360;9.738;2023-03-30T05:48:28;9.40;95.70
7606;DHT22;3844;53.360;9.738;2023-03-30T05:50:28;9.40;95.70
7606;DHT22;3844;53.360;9.738;2023-03-30T05:52:29;9.50;95.70
7606;DHT22;3844;53.360;9.738;2023-03-30T05:54:30;9.50;95.70
7606;DHT22;3844;53.360;9.738;2023-03-30T05:56:31;9.60;95.70
7606;DHT22;3844;53.360;9.738;2023-03-30T05:58:32;9.60;95.70
7606;DHT22;3844;53.360;9.738;2023-03-30T06:00:33;9.60;95.70
7606;DHT22;3844;53.360;9.738;2023-03-30T06:04:37;9.70;95.70
7606;DHT22;3844;53.360;9.738;2023-03-30T06:06:38;9.70;95.70
7606;DHT22;3844;53.360;9.738;2023-03-30T06:08:39;9.80;95.70
7606;DHT22;3844;53.360;9.738;2023-03-30T06:10:41;9.80;95.70
7606;DHT22;3844;53.360;9.738;2023-03-30T06:12:42;9.90;95.70
7606;DHT22;3844;53.360;9.738;2023-03-30T06:14:42;9.90;95.70
7606;DHT22;3844;53.360;9.738;2023-03-30T06:16:43;10.00;95.70
7606;DHT22;3844;53.360;9.738;2023-03-30T06:18:44;10.10;95.70
7606;DHT22;3844;53.360;9.738;2023-03-30T06:20:48;10.10;95.70
7606;DHT22;3844;53.360;9.738;2023-03-30T06:22:49;10.20;95.70
7606;DHT22;3844;53.360;9.738;2023-03-30T06:24:51;10.20;95.70
7606;DHT22;3844;53.360;9.738;2023-03-30T06:26:51;10.30;95.70
7606;DHT22;3844;53.360;9.738;2023-03-30T06:28:52;10.30;95.70
7606;DHT22;3844;53.360;9.738;2023-03-30T06:30:53;10.30;95.70
7606;DHT22;3844;53.360;9.738;2023-03-30T06:32:53;10.30;95.70
7606;DHT22;3844;53.360;9.738;2023-03-30T06:34:55;10.30;95.70
7606;DHT22;3844;53.360;9.738;2023-03-30T06:36:56;10.40;95.70
7606;DHT22;3844;53.360;9.738;2023-03-30T06:38:57;10.50;95.70
7606;DHT22;3844;53.360;9.738;2023-03-30T06:41:02;10.60;95.70
7606;DHT22;3844;53.360;9.738;2023-03-30T06:43:04;10.80;95.70
7606;DHT22;3844;53.360;9.738;2023-03-30T06:45:06;10.90;95.70
7606;DHT22;3844;53.360;9.738;2023-03-30T06:47:07;10.90;95.70
7606;DHT22;3844;53.360;9.738;2023-03-30T06:49:10;11.00;95.70
7606;DHT22;3844;53.360;9.738;2023-03-30T06:51:11;11.10;95.70
7606;DHT22;3844;53.360;9.738;2023-03-30T06:53:13;11.20;95.70
7606;DHT22;3844;53.360;9.738;2023-03-30T06:55:14;11.30;95.70
7606;DHT22;3844;53.360;9.738;2023-03-30T06:57:15;11.40;95.70
7606;DHT22;3844;53.360;9.738;2023-03-30T06:59:16;11.50;95.70
7606;DHT22;3844;53.360;9.738;2023-03-30T07:01:16;11.60;95.70
7606;DHT22;3844;53.360;9.738;2023-03-30T07:03:18;11.60;95.70
7606;DHT22;3844;53.360;9.738;2023-03-30T07:05:19;11.60;95.70
7606;DHT22;3844;53.360;9.738;2023-03-30T07:07:24;11.60;95.70
7606;DHT22;3844;53.360;9.738;2023-03-30T07:09:24;11.70;95.70
7606;DHT22;3844;53.360;9.738;2023-03-30T07:11:26;11.70;95.70
7606;DHT22;3844;53.360;9.738;2023-03-30T07:13:26;11.70;95.70
7606;DHT22;3844;53.360;9.738;2023-03-30T07:15:27;11.60;95.70
7606;DHT22;3844;53.360;9.738;2023-03-30T07:17:28;11.60;95.70
7606;DHT22;3844;53.360;9.738;2023-03-30T07:19:29;11.60;95.70
7606;DHT22;3844;53.360;9.738;2023-03-30T07:21:31;11.60;95.70
7606;DHT22;3844;53.360;9.738;2023-03-30T07:23:31;11.60;95.70
7606;DHT22;3844;53.360;9.738;2023-03-30T07:25:32;11.60;95.70
7606;DHT22;3844;53.360;9.738;2023-03-30T07:27:33;11.60;95.70
7606;DHT22;3844;53.360;9.738;2023-03-30T07:29:35;11.60;95.70
7606;DHT22;3844;53.360;9.738;2023-03-30T07:31:36;11.60;95.70
7606;DHT22;3844;53.360;9.738;2023-03-30T07:33:37;11.60;95.70
7606;DHT22;3844;53.360;9.738;2023-03-30T07:35:45;11.60;95.70
7606;DHT22;3844;53.360;9.738;2023-03-30T07:37:46;11.70;95.70
7606;DHT22;3844;53.360;9.738;2023-03-30T07:41:48;11.90;95.70
7606;DHT22;3844;53.360;9.738;2023-03-30T07:43:48;12.00;95.70
7606;DHT22;3844;53.360;9.738;2023-03-30T07:45:49;12.10;95.70
7606;DHT22;3844;53.360;9.738;2023-03-30T07:47:50;12.10;95.70
7606;DHT22;3844;53.360;9.738;2023-03-30T07:51:53;12.30;95.70
7606;DHT22;3844;53.360;9.738;2023-03-30T07:53:54;12.40;95.70
7606;DHT22;3844;53.360;9.738;2023-03-30T07:55:55;12.50;95.70
7606;DHT22;3844;53.360;9.738;2023-03-30T07:57:56;12.50;95.70
7606;DHT22;3844;53.360;9.738;2023-03-30T07:59:56;12.50;95.70
7606;DHT22;3844;53.360;9.738;2023-03-30T08:03:58;12.40;95.70
7606;DHT22;3844;53.360;9.738;2023-03-30T08:06:01;12.40;95.70
7606;DHT22;3844;53.360;9.738;2023-03-30T08:08:05;12.40;95.70
7606;DHT22;3844;53.360;9.738;2023-03-30T08:10:07;12.40;95.70
7606;DHT22;3844;53.360;9.738;2023-03-30T08:12:08;12.40;95.70
7606;DHT22;3844;53.360;9.738;2023-03-30T08:14:09;12.40;95.70
7606;DHT22;3844;53.360;9.738;2023-03-30T08:16:10;12.40;95.70
7606;DHT22;3844;53.360;9.738;2023-03-30T08:18:12;12.40;95.70
7606;DHT22;3844;53.360;9.738;2023-03-30T08:20:13;12.60;95.70
7606;DHT22;3844;53.360;9.738;2023-03-30T08:22:14;12.80;95.70
7606;DHT22;3844;53.360;9.738;2023-03-30T08:24:15;13.10;95.70
7606;DHT22;3844;53.360;9.738;2023-03-30T08:26:16;13.40;95.70
7606;DHT22;3844;53.360;9.738;2023-03-30T08:28:18;13.70;95.70
7606;DHT22;3844;53.360;9.738;2023-03-30T08:30:21;13.90;95.70
7606;DHT22;3844;53.360;9.738;2023-03-30T08:32:22;14.10;95.70
7606;DHT22;3844;53.360;9.738;2023-03-30T08:34:23;14.50;95.70
7606;DHT22;3844;53.360;9.738;2023-03-30T08:36:24;15.00;95.70
7606;DHT22;3844;53.360;9.738;2023-03-30T08:38:24;15.80;95.70
7606;DHT22;3844;53.360;9.738;2023-03-30T08:40:26;16.50;95.70
7606;DHT22;3844;53.360;9.738;2023-03-30T08:43:15;17.10;91.90
7606;DHT22;3844;53.360;9.738;2023-03-30T08:45:08;17.50;84.90
7606;DHT22;3844;53.360;9.738;2023-03-30T08:47:29;17.80;84.40
7606;DHT22;3844;53.360;9.738;2023-03-30T08:49:34;18.10;83.30
7606;DHT22;3844;53.360;9.738;2023-03-30T08:51:38;17.90;81.90
7606;DHT22;3844;53.360;9.738;2023-03-30T08:53:39;17.50;82.10
7606;DHT22;3844;53.360;9.738;2023-03-30T08:56:16;17.10;82.20
7606;DHT22;3844;53.360;9.738;2023-03-30T09:00:43;16.60;84.40
7606;DHT22;3844;53.360;9.738;2023-03-30T09:02:52;16.60;86.10
7606;DHT22;3844;53.360;9.738;2023-03-30T09:07:32;17.00;81.40
7606;DHT22;3844;53.360;9.738;2023-03-30T09:09:42;16.80;82.70
7606;DHT22;3844;53.360;9.738;2023-03-30T09:11:45;16.70;83.60
7606;DHT22;3844;53.360;9.738;2023-03-30T09:13:48;16.60;84.10
7606;DHT22;3844;53.360;9.738;2023-03-30T09:16:21;16.50;84.70
7606;DHT22;3844;53.360;9.738;2023-03-30T09:18:29;16.30;83.80
7606;DHT22;3844;53.360;9.738;2023-03-30T09:20:33;16.10;84.30
7606;DHT22;3844;53.360;9.738;2023-03-30T09:22:41;15.90;84.50
7606;DHT22;3844;53.360;9.738;2023-03-30T09:24:42;15.80;84.40
7606;DHT22;3844;53.360;9.738;2023-03-30T09:29:02;15.60;84.90
7606;DHT22;3844;53.360;9.738;2023-03-30T09:35:42;15.10;87.60
7606;DHT22;3844;53.360;9.738;2023-03-30T09:37:47;14.90;89.20
7606;DHT22;3844;53.360;9.738;2023-03-30T09:46:28;14.40;95.70
7606;DHT22;3844;53.360;9.738;2023-03-30T09:48:43;14.60;95.70
7606;DHT22;3844;53.360;9.738;2023-03-30T09:50:45;14.80;95.70
7606;DHT22;3844;53.360;9.738;2023-03-30T09:52:58;15.10;95.20
7606;DHT22;3844;53.360;9.738;2023-03-30T09:57:28;15.80;93.00
7606;DHT22;3844;53.360;9.738;2023-03-30T09:59:33;16.20;90.30
7606;DHT22;3844;53.360;9.738;2023-03-30T10:01:35;16.50;89.70
7606;DHT22;3844;53.360;9.738;2023-03-30T10:03:41;16.70;86.40
7606;DHT22;3844;53.360;9.738;2023-03-30T10:05:43;16.80;83.80
7606;DHT22;3844;53.360;9.738;2023-03-30T10:07:52;16.90;84.70
7606;DHT22;3844;53.360;9.738;2023-03-30T10:09:54;17.00;82.20
7606;DHT22;3844;53.360;9.738;2023-03-30T10:11:57;17.10;81.00
7606;DHT22;3844;53.360;9.738;2023-03-30T10:13:57;17.00;77.10
7606;DHT22;3844;53.360;9.738;2023-03-30T10:16:17;16.90;80.00
7606;DHT22;3844;53.360;9.738;2023-03-30T10:18:26;17.20;77.70
7606;DHT22;3844;53.360;9.738;2023-03-30T10:20:32;17.50;79.30
7606;DHT22;3844;53.360;9.738;2023-03-30T10:22:37;18.10;75.70
7606;DHT22;3844;53.360;9.738;2023-03-30T10:24:53;18.30;73.10
7606;DHT22;3844;53.360;9.738;2023-03-30T10:27:07;18.60;72.10
7606;DHT22;3844;53.360;9.738;2023-03-30T10:29:12;18.90;72.90
7606;DHT22;3844;53.360;9.738;2023-03-30T10:31:15;19.20;73.10
7606;DHT22;3844;53.360;9.738;2023-03-30T10:33:16;19.30;72.40
7606;DHT22;3844;53.360;9.738;2023-03-30T10:35:26;19.20;71.80
7606;DHT22;3844;53.360;9.738;2023-03-30T10:37:40;18.80;71.90
7606;DHT22;3844;53.360;9.738;2023-03-30T10:39:44;18.60;71.20
7606;DHT22;3844;53.360;9.738;2023-03-30T10:41:46;18.60;71.60
7606;DHT22;3844;53.360;9.738;2023-03-30T10:43:49;18.90;72.20
7606;DHT22;3844;53.360;9.738;2023-03-30T10:45:53;19.20;70.50
7606;DHT22;3844;53.360;9.738;2023-03-30T10:48:08;19.40;71.40
7606;DHT22;3844;53.360;9.738;2023-03-30T10:53:04;20.40;68.70
7606;DHT22;3844;53.360;9.738;2023-03-30T10:55:20;20.40;66.70
7606;DHT22;3844;53.360;9.738;2023-03-30T10:57:32;19.80;68.40
7606;DHT22;3844;53.360;9.738;2023-03-30T11:06:33;17.50;72.40
7606;DHT22;3844;53.360;9.738;2023-03-30T11:08:40;17.20;73.00
7606;DHT22;3844;53.360;9.738;2023-03-30T11:10:44;17.00;73.60
7606;DHT22;3844;53.360;9.738;2023-03-30T11:15:13;16.60;73.20
7606;DHT22;3844;53.360;9.738;2023-03-30T11:19:48;16.10;74.70
7606;DHT22;3844;53.360;9.738;2023-03-30T11:24:23;15.70;75.10
7606;DHT22;3844;53.360;9.738;2023-03-30T11:26:39;15.60;76.20
7606;DHT22;3844;53.360;9.738;2023-03-30T11:33:50;15.20;78.20
7606;DHT22;3844;53.360;9.738;2023-03-30T11:36:00;15.10;79.20
7606;DHT22;3844;53.360;9.738;2023-03-30T11:38:13;15.10;81.20
7606;DHT22;3844;53.360;9.738;2023-03-30T11:40:24;15.20;80.20
7606;DHT22;3844;53.360;9.738;2023-03-30T11:42:31;15.40;78.80
7606;DHT22;3844;53.360;9.738;2023-03-30T11:44:31;15.40;78.80
7606;DHT22;3844;53.360;9.738;2023-03-30T11:51:45;15.90;77.10
7606;DHT22;3844;53.360;9.738;2023-03-30T11:56:38;16.40;77.90
7606;DHT22;3844;53.360;9.738;2023-03-30T11:58:46;16.60;76.30
7606;DHT22;3844;53.360;9.738;2023-03-30T12:01:10;16.50;75.40
7606;DHT22;3844;53.360;9.738;2023-03-30T12:03:35;16.30;76.90
7606;DHT22;3844;53.360;9.738;2023-03-30T12:05:45;16.00;77.70
7606;DHT22;3844;53.360;9.738;2023-03-30T12:08:11;15.80;77.10
7606;DHT22;3844;53.360;9.738;2023-03-30T12:10:35;15.60;77.60
7606;DHT22;3844;53.360;9.738;2023-03-30T12:12:38;15.50;76.50
7606;DHT22;3844;53.360;9.738;2023-03-30T12:15:14;15.40;76.30
7606;DHT22;3844;53.360;9.738;2023-03-30T12:19:46;15.40;77.80
7606;DHT22;3844;53.360;9.738;2023-03-30T12:22:02;16.00;78.30
7606;DHT22;3844;53.360;9.738;2023-03-30T12:24:11;16.80;75.40
7606;DHT22;3844;53.360;9.738;2023-03-30T12:26:27;17.70;75.60
7606;DHT22;3844;53.360;9.738;2023-03-30T12:28:53;18.30;71.00
7606;DHT22;3844;53.360;9.738;2023-03-30T12:30:58;18.30;71.30
7606;DHT22;3844;53.360;9.738;2023-03-30T12:33:10;18.40;70.30
7606;DHT22;3844;53.360;9.738;2023-03-30T12:37:50;18.00;71.70
7606;DHT22;3844;53.360;9.738;2023-03-30T12:40:03;17.70;72.50
7606;DHT22;3844;53.360;9.738;2023-03-30T12:42:32;17.30;72.80
7606;DHT22;3844;53.360;9.738;2023-03-30T12:47:03;16.50;75.70
7606;DHT22;3844;53.360;9.738;2023-03-30T12:51:48;16.10;77.10
7606;DHT22;3844;53.360;9.738;2023-03-30T13:05:00;15.80;75.80
7606;DHT22;3844;53.360;9.738;2023-03-30T13:07:05;15.70;75.30
7606;DHT22;3844;53.360;9.738;2023-03-30T13:11:16;15.50;76.70
7606;DHT22;3844;53.360;9.738;2023-03-30T13:13:23;15.40;76.10
7606;DHT22;3844;53.360;9.738;2023-03-30T13:15:53;15.30;75.30
7606;DHT22;3844;53.360;9.738;2023-03-30T13:20:14;14.90;76.60
7606;DHT22;3844;53.360;9.738;2023-03-30T13:22:23;14.90;79.50
7606;DHT22;3844;53.360;9.738;2023-03-30T13:26:43;15.90;77.80
7606;DHT22;3844;53.360;9.738;2023-03-30T13:30:58;15.90;74.90
7606;DHT22;3844;53.360;9.738;2023-03-30T13:33:13;15.90;74.30
7606;DHT22;3844;53.360;9.738;2023-03-30T13:48:57;18.10;66.50
7606;DHT22;3844;53.360;9.738;2023-03-30T13:51:02;17.80;66.40
7606;DHT22;3844;53.360;9.738;2023-03-30T13:53:08;17.50;67.30
7606;DHT22;3844;53.360;9.738;2023-03-30T13:55:31;17.20;67.20
7606;DHT22;3844;53.360;9.738;2023-03-30T13:57:38;17.00;67.40
7606;DHT22;3844;53.360;9.738;2023-03-30T13:59:44;16.70;68.50
7606;DHT22;3844;53.360;9.738;2023-03-30T14:01:51;16.60;69.70
7606;DHT22;3844;53.360;9.738;2023-03-30T14:03:56;16.70;68.90
7606;DHT22;3844;53.360;9.738;2023-03-30T14:06:04;16.70;67.90
7606;DHT22;3844;53.360;9.738;2023-03-30T14:08:07;16.70;69.60
7606;DHT22;3844;53.360;9.738;2023-03-30T14:10:18;17.00;69.50
7606;DHT22;3844;53.360;9.738;2023-03-30T14:12:19;17.40;69.00
7606;DHT22;3844;53.360;9.738;2023-03-30T14:14:36;17.80;68.40
7606;DHT22;3844;53.360;9.738;2023-03-30T14:16:39;18.20;68.30
7606;DHT22;3844;53.360;9.738;2023-03-30T14:18:41;18.50;66.20
7606;DHT22;3844;53.360;9.738;2023-03-30T14:22:45;18.60;63.30
7606;DHT22;3844;53.360;9.738;2023-03-30T14:25:00;18.40;63.60
7606;DHT22;3844;53.360;9.738;2023-03-30T14:27:11;18.00;62.90
7606;DHT22;3844;53.360;9.738;2023-03-30T14:29:18;17.80;64.10
7606;DHT22;3844;53.360;9.738;2023-03-30T14:31:19;17.80;64.60
7606;DHT22;3844;53.360;9.738;2023-03-30T14:33:20;17.60;63.70
7606;DHT22;3844;53.360;9.738;2023-03-30T14:35:24;17.60;65.30
7606;DHT22;3844;53.360;9.738;2023-03-30T14:37:26;17.60;64.50
7606;DHT22;3844;53.360;9.738;2023-03-30T14:39:30;17.50;64.40
7606;DHT22;3844;53.360;9.738;2023-03-30T14:41:31;17.30;64.40
7606;DHT22;3844;53.360;9.738;2023-03-30T14:43:32;17.00;65.80
7606;DHT22;3844;53.360;9.738;2023-03-30T14:45:34;16.80;65.30
7606;DHT22;3844;53.360;9.738;2023-03-30T14:47:35;16.70;66.20
7606;DHT22;3844;53.360;9.738;2023-03-30T14:49:37;16.60;66.60
7606;DHT22;3844;53.360;9.738;2023-03-30T14:51:43;16.40;66.30
7606;DHT22;3844;53.360;9.738;2023-03-30T14:53:46;16.20;67.10
7606;DHT22;3844;53.360;9.738;2023-03-30T14:55:47;16.10;67.80
7606;DHT22;3844;53.360;9.738;2023-03-30T14:57:48;16.00;68.80
7606;DHT22;3844;53.360;9.738;2023-03-30T15:01:53;15.70;69.20
7606;DHT22;3844;53.360;9.738;2023-03-30T15:04:15;15.50;71.70
7606;DHT22;3844;53.360;9.738;2023-03-30T15:06:23;15.10;75.30
7606;DHT22;3844;53.360;9.738;2023-03-30T15:08:26;14.80;81.60
7606;DHT22;3844;53.360;9.738;2023-03-30T15:10:44;14.70;82.50
7606;DHT22;3844;53.360;9.738;2023-03-30T15:12:45;14.60;84.10
7606;DHT22;3844;53.360;9.738;2023-03-30T15:14:47;14.60;84.10
7606;DHT22;3844;53.360;9.738;2023-03-30T15:16:51;14.60;84.00
7606;DHT22;3844;53.360;9.738;2023-03-30T15:19:00;14.60;83.30
7606;DHT22;3844;53.360;9.738;2023-03-30T15:21:01;14.50;82.30
7606;DHT22;3844;53.360;9.738;2023-03-30T15:23:02;14.40;82.30
7606;DHT22;3844;53.360;9.738;2023-03-30T15:25:16;14.30;83.40
7606;DHT22;3844;53.360;9.738;2023-03-30T15:27:17;14.30;82.80
7606;DHT22;3844;53.360;9.738;2023-03-30T15:29:18;14.30;84.00
7606;DHT22;3844;53.360;9.738;2023-03-30T15:31:19;14.30;83.10
7606;DHT22;3844;53.360;9.738;2023-03-30T15:33:40;14.30;83.50
7606;DHT22;3844;53.360;9.738;2023-03-30T15:35:41;14.30;83.50
7606;DHT22;3844;53.360;9.738;2023-03-30T15:37:56;14.40;83.30
7606;DHT22;3844;53.360;9.738;2023-03-30T15:39:57;14.40;82.40
7606;DHT22;3844;53.360;9.738;2023-03-30T15:42:08;14.40;81.40
7606;DHT22;3844;53.360;9.738;2023-03-30T15:44:11;14.40;80.90
7606;DHT22;3844;53.360;9.738;2023-03-30T15:46:15;14.30;80.00
7606;DHT22;3844;53.360;9.738;2023-03-30T15:48:21;14.30;79.30
7606;DHT22;3844;53.360;9.738;2023-03-30T15:50:23;14.30;80.10
7606;DHT22;3844;53.360;9.738;2023-03-30T15:52:32;14.20;80.10
7606;DHT22;3844;53.360;9.738;2023-03-30T15:54:48;14.20;79.90
7606;DHT22;3844;53.360;9.738;2023-03-30T15:59:18;14.10;80.90
7606;DHT22;3844;53.360;9.738;2023-03-30T16:01:19;14.20;80.80
7606;DHT22;3844;53.360;9.738;2023-03-30T16:03:38;14.30;82.70
7606;DHT22;3844;53.360;9.738;2023-03-30T16:05:40;14.30;83.70
7606;DHT22;3844;53.360;9.738;2023-03-30T16:07:42;14.30;85.80
7606;DHT22;3844;53.360;9.738;2023-03-30T16:09:43;14.20;86.20
7606;DHT22;3844;53.360;9.738;2023-03-30T16:11:44;14.00;87.90
7606;DHT22;3844;53.360;9.738;2023-03-30T16:13:47;13.90;87.60
7606;DHT22;3844;53.360;9.738;2023-03-30T16:15:48;13.70;88.40
7606;DHT22;3844;53.360;9.738;2023-03-30T16:17:49;13.60;89.60